sensor_id;sensor_type;location;lat;lon;timestamp;P1;durP1;ratioP1;P2;durP2;ratioP2
9807;SDS011;4943;52.550;13.462;2022-12-07T00:01:46;4.53;;;2.90;;
9807;SDS011;4943;52.550;13.462;2022-12-07T00:04:16;5.87;;;3.40;;
9807;SDS011;4943;52.550;13.462;2022-12-07T00:06:46;3.97;;;2.83;;
9807;SDS011;4943;52.550;13.462;2022-12-07T00:09:20;5.30;;;3.60;;
9807;SDS011;4943;52.550;13.462;2022-12-07T00:11:50;7.47;;;3.83;;
9807;SDS011;4943;52.550;13.462;2022-12-07T00:14:20;6.33;;;3.70;;
9807;SDS011;4943;52.550;13.462;2022-12-07T00:16:49;4.90;;;3.53;;
9807;SDS011;4943;52.550;13.462;2022-12-07T00:19:19;4.53;;;3.10;;
9807;SDS011;4943;52.550;13.462;2022-12-07T00:21:47;7.10;;;4.07;;
9807;SDS011;4943;52.550;13.462;2022-12-07T00:24:16;5.27;;;2.97;;
9807;SDS011;4943;52.550;13.462;2022-12-07T00:26:45;4.70;;;3.00;;
9807;SDS011;4943;52.550;13.462;2022-12-07T00:29:16;3.57;;;2.63;;
9807;SDS011;4943;52.550;13.462;2022-12-07T00:31:46;4.77;;;3.23;;
9807;SDS011;4943;52.550;13.462;2022-12-07T00:34:16;5.57;;;3.27;;
9807;SDS011;4943;52.550;13.462;2022-12-07T00:36:46;5.10;;;3.20;;
9807;SDS011;4943;52.550;13.462;2022-12-07T00:39:15;7.13;;;3.53;;
9807;SDS011;4943;52.550;13.462;2022-12-07T00:41:44;5.83;;;3.43;;
9807;SDS011;4943;52.550;13.462;2022-12-07T00:44:12;4.33;;;3.07;;
9807;SDS011;4943;52.550;13.462;2022-12-07T00:46:43;7.20;;;3.60;;
9807;SDS011;4943;52.550;13.462;2022-12-07T00:49:12;3.97;;;2.87;;
9807;SDS011;4943;52.550;13.462;2022-12-07T00:51:40;4.27;;;3.17;;
9807;SDS011;4943;52.550;13.462;2022-12-07T00:54:09;5.03;;;3.53;;
9807;SDS011;4943;52.550;13.462;2022-12-07T00:56:37;7.33;;;3.67;;
9807;SDS011;4943;52.550;13.462;2022-12-07T00:59:06;4.47;;;2.80;;
9807;SDS011;4943;52.550;13.462;2022-12-07T01:01:35;5.20;;;3.23;;
9807;SDS011;4943;52.550;13.462;2022-12-07T01:04:05;5.10;;;3.00;;
9807;SDS011;4943;52.550;13.462;2022-12-07T01:06:34;5.13;;;3.70;;
9807;SDS011;4943;52.550;13.462;2022-12-07T01:09:03;6.27;;;3.20;;
9807;SDS011;4943;52.550;13.462;2022-12-07T01:11:32;5.03;;;2.97;;
9807;SDS011;4943;52.550;13.462;2022-12-07T01:14:01;3.70;;;2.30;;
9807;SDS011;4943;52.550;13.462;2022-12-07T01:16:31;6.20;;;3.40;;
9807;SDS011;4943;52.550;13.462;2022-12-07T01:19:01;5.07;;;3.40;;
9807;SDS011;4943;52.550;13.462;2022-12-07T01:21:33;5.57;;;3.10;;
9807;SDS011;4943;52.550;13.462;2022-12-07T01:24:04;3.50;;;2.93;;
9807;SDS011;4943;52.550;13.462;2022-12-07T01:26:34;4.93;;;3.27;;
9807;SDS011;4943;52.550;13.462;2022-12-07T01:29:03;4.40;;;2.93;;
9807;SDS011;4943;52.550;13.462;2022-12-07T01:31:31;4.37;;;2.50;;
9807;SDS011;4943;52.550;13.462;2022-12-07T01:34:00;4.07;;;2.60;;
9807;SDS011;4943;52.550;13.462;2022-12-07T01:36:30;4.37;;;2.83;;
9807;SDS011;4943;52.550;13.462;2022-12-07T01:39:02;3.23;;;2.43;;
9807;SDS011;4943;52.550;13.462;2022-12-07T01:41:33;4.30;;;3.13;;
9807;SDS011;4943;52.550;13.462;2022-12-07T01:44:11;4.80;;;3.27;;
9807;SDS011;4943;52.550;13.462;2022-12-07T01:46:43;4.27;;;2.70;;
9807;SDS011;4943;52.550;13.462;2022-12-07T01:49:14;3.70;;;2.33;;
9807;SDS011;4943;52.550;13.462;2022-12-07T01:51:48;4.63;;;2.50;;
9807;SDS011;4943;52.550;13.462;2022-12-07T01:54:19;3.63;;;2.60;;
9807;SDS011;4943;52.550;13.462;2022-12-07T01:56:50;2.50;;;2.17;;
9807;SDS011;4943;52.550;13.462;2022-12-07T01:59:21;3.53;;;2.50;;
9807;SDS011;4943;52.550;13.462;2022-12-07T02:01:53;5.20;;;2.80;;
9807;SDS011;4943;52.550;13.462;2022-12-07T02:04:23;3.50;;;2.70;;
9807;SDS011;4943;52.550;13.462;2022-12-07T02:06:54;2.77;;;2.43;;
9807;SDS011;4943;52.550;13.462;2022-12-07T02:09:23;3.40;;;2.33;;
9807;SDS011;4943;52.550;13.462;2022-12-07T02:11:52;3.57;;;2.63;;
9807;SDS011;4943;52.550;13.462;2022-12-07T02:14:22;3.40;;;2.07;;
9807;SDS011;4943;52.550;13.462;2022-12-07T02:16:54;3.60;;;2.53;;
9807;SDS011;4943;52.550;13.462;2022-12-07T02:20:00;4.57;;;2.37;;
9807;SDS011;4943;52.550;13.462;2022-12-07T02:22:49;3.33;;;2.20;;
9807;SDS011;4943;52.550;13.462;2022-12-07T02:25:32;2.80;;;2.00;;
9807;SDS011;4943;52.550;13.462;2022-12-07T02:28:19;3.47;;;2.43;;
9807;SDS011;4943;52.550;13.462;2022-12-07T02:30:58;4.40;;;2.57;;
9807;SDS011;4943;52.550;13.462;2022-12-07T02:33:33;4.13;;;2.57;;
9807;SDS011;4943;52.550;13.462;2022-12-07T02:36:06;4.77;;;1.93;;
9807;SDS011;4943;52.550;13.462;2022-12-07T02:38:39;3.13;;;2.13;;
9807;SDS011;4943;52.550;13.462;2022-12-07T02:41:13;1.73;;;1.63;;
9807;SDS011;4943;52.550;13.462;2022-12-07T02:43:47;5.27;;;2.17;;
9807;SDS011;4943;52.550;13.462;2022-12-07T02:46:22;2.90;;;2.13;;
9807;SDS011;4943;52.550;13.462;2022-12-07T02:48:54;4.30;;;2.77;;
9807;SDS011;4943;52.550;13.462;2022-12-07T02:51:26;3.17;;;1.97;;
9807;SDS011;4943;52.550;13.462;2022-12-07T02:53:58;3.13;;;1.80;;
9807;SDS011;4943;52.550;13.462;2022-12-07T02:56:27;2.73;;;2.20;;
9807;SDS011;4943;52.550;13.462;2022-12-07T02:59:08;3.27;;;2.13;;
9807;SDS011;4943;52.550;13.462;2022-12-07T03:01:46;2.97;;;2.20;;
9807;SDS011;4943;52.550;13.462;2022-12-07T03:04:26;4.27;;;2.67;;
9807;SDS011;4943;52.550;13.462;2022-12-07T03:07:07;4.43;;;2.67;;
9807;SDS011;4943;52.550;13.462;2022-12-07T03:09:45;4.70;;;2.83;;
9807;SDS011;4943;52.550;13.462;2022-12-07T03:12:22;3.90;;;2.50;;
9807;SDS011;4943;52.550;13.462;2022-12-07T03:14:59;4.97;;;2.97;;
9807;SDS011;4943;52.550;13.462;2022-12-07T03:17:34;3.37;;;2.37;;
9807;SDS011;4943;52.550;13.462;2022-12-07T03:20:07;3.20;;;2.00;;
9807;SDS011;4943;52.550;13.462;2022-12-07T03:22:39;3.03;;;2.10;;
9807;SDS011;4943;52.550;13.462;2022-12-07T03:25:11;6.00;;;2.70;;
9807;SDS011;4943;52.550;13.462;2022-12-07T03:27:44;4.67;;;2.67;;
9807;SDS011;4943;52.550;13.462;2022-12-07T03:30:19;3.20;;;2.33;;
9807;SDS011;4943;52.550;13.462;2022-12-07T03:32:52;4.90;;;2.83;;
9807;SDS011;4943;52.550;13.462;2022-12-07T03:35:27;4.77;;;2.63;;
9807;SDS011;4943;52.550;13.462;2022-12-07T03:37:59;4.60;;;3.07;;
9807;SDS011;4943;52.550;13.462;2022-12-07T03:40:34;4.37;;;2.90;;
9807;SDS011;4943;52.550;13.462;2022-12-07T03:43:08;5.40;;;3.40;;
9807;SDS011;4943;52.550;13.462;2022-12-07T03:45:38;5.10;;;3.37;;
9807;SDS011;4943;52.550;13.462;2022-12-07T03:48:13;6.50;;;3.67;;
9807;SDS011;4943;52.550;13.462;2022-12-07T03:50:50;4.27;;;2.90;;
9807;SDS011;4943;52.550;13.462;2022-12-07T03:53:24;4.63;;;3.13;;
9807;SDS011;4943;52.550;13.462;2022-12-07T03:55:59;4.53;;;3.23;;
9807;SDS011;4943;52.550;13.462;2022-12-07T03:58:29;5.30;;;3.33;;
9807;SDS011;4943;52.550;13.462;2022-12-07T04:00:58;4.07;;;3.10;;
9807;SDS011;4943;52.550;13.462;2022-12-07T04:03:28;6.00;;;3.57;;
9807;SDS011;4943;52.550;13.462;2022-12-07T04:05:57;4.67;;;3.67;;
9807;SDS011;4943;52.550;13.462;2022-12-07T04:08:26;4.77;;;3.17;;
9807;SDS011;4943;52.550;13.462;2022-12-07T04:10:55;5.70;;;3.23;;
9807;SDS011;4943;52.550;13.462;2022-12-07T04:13:23;6.93;;;3.87;;
9807;SDS011;4943;52.550;13.462;2022-12-07T04:15:52;6.37;;;3.33;;
9807;SDS011;4943;52.550;13.462;2022-12-07T04:18:21;5.20;;;3.53;;
9807;SDS011;4943;52.550;13.462;2022-12-07T04:20:50;4.90;;;3.10;;
9807;SDS011;4943;52.550;13.462;2022-12-07T04:23:19;7.00;;;3.90;;
9807;SDS011;4943;52.550;13.462;2022-12-07T04:25:47;7.93;;;3.77;;
9807;SDS011;4943;52.550;13.462;2022-12-07T04:28:16;5.03;;;3.07;;
9807;SDS011;4943;52.550;13.462;2022-12-07T04:30:45;5.53;;;3.27;;
9807;SDS011;4943;52.550;13.462;2022-12-07T04:33:13;8.20;;;3.87;;
9807;SDS011;4943;52.550;13.462;2022-12-07T04:35:42;4.97;;;3.57;;
9807;SDS011;4943;52.550;13.462;2022-12-07T04:38:12;7.67;;;3.80;;
9807;SDS011;4943;52.550;13.462;2022-12-07T04:40:40;5.97;;;3.73;;
9807;SDS011;4943;52.550;13.462;2022-12-07T04:43:09;6.33;;;3.47;;
9807;SDS011;4943;52.550;13.462;2022-12-07T04:45:38;5.67;;;3.70;;
9807;SDS011;4943;52.550;13.462;2022-12-07T04:48:06;6.63;;;3.70;;
9807;SDS011;4943;52.550;13.462;2022-12-07T04:50:35;5.27;;;3.53;;
9807;SDS011;4943;52.550;13.462;2022-12-07T04:53:13;4.93;;;3.47;;
9807;SDS011;4943;52.550;13.462;2022-12-07T04:55:41;6.63;;;4.63;;
9807;SDS011;4943;52.550;13.462;2022-12-07T04:58:10;7.67;;;3.80;;
9807;SDS011;4943;52.550;13.462;2022-12-07T05:00:39;6.73;;;3.37;;
9807;SDS011;4943;52.550;13.462;2022-12-07T05:03:08;7.37;;;4.13;;
9807;SDS011;4943;52.550;13.462;2022-12-07T05:05:39;7.90;;;4.00;;
9807;SDS011;4943;52.550;13.462;2022-12-07T05:08:08;7.50;;;3.70;;
9807;SDS011;4943;52.550;13.462;2022-12-07T05:10:39;7.50;;;4.83;;
9807;SDS011;4943;52.550;13.462;2022-12-07T05:13:08;6.27;;;4.17;;
9807;SDS011;4943;52.550;13.462;2022-12-07T05:15:36;7.10;;;4.10;;
9807;SDS011;4943;52.550;13.462;2022-12-07T05:18:05;7.30;;;4.80;;
9807;SDS011;4943;52.550;13.462;2022-12-07T05:20:33;6.90;;;4.53;;
9807;SDS011;4943;52.550;13.462;2022-12-07T05:23:08;10.50;;;4.77;;
9807;SDS011;4943;52.550;13.462;2022-12-07T05:25:38;6.47;;;4.30;;
9807;SDS011;4943;52.550;13.462;2022-12-07T05:28:07;7.47;;;4.87;;
9807;SDS011;4943;52.550;13.462;2022-12-07T05:30:35;6.97;;;4.97;;
9807;SDS011;4943;52.550;13.462;2022-12-07T05:33:04;8.83;;;4.53;;
9807;SDS011;4943;52.550;13.462;2022-12-07T05:35:33;9.80;;;5.50;;
9807;SDS011;4943;52.550;13.462;2022-12-07T05:38:01;10.17;;;6.03;;
9807;SDS011;4943;52.550;13.462;2022-12-07T05:40:30;8.50;;;5.27;;
9807;SDS011;4943;52.550;13.462;2022-12-07T05:43:00;8.37;;;4.90;;
9807;SDS011;4943;52.550;13.462;2022-12-07T05:45:30;11.57;;;6.03;;
9807;SDS011;4943;52.550;13.462;2022-12-07T05:47:59;11.57;;;6.20;;
9807;SDS011;4943;52.550;13.462;2022-12-07T05:50:27;8.90;;;5.47;;
9807;SDS011;4943;52.550;13.462;2022-12-07T05:52:56;8.00;;;5.03;;
9807;SDS011;4943;52.550;13.462;2022-12-07T05:55:24;7.17;;;5.10;;
9807;SDS011;4943;52.550;13.462;2022-12-07T05:57:53;11.77;;;5.80;;
9807;SDS011;4943;52.550;13.462;2022-12-07T06:00:45;10.40;;;5.70;;
9807;SDS011;4943;52.550;13.462;2022-12-07T06:03:16;9.73;;;5.57;;
9807;SDS011;4943;52.550;13.462;2022-12-07T06:05:45;9.23;;;4.83;;
9807;SDS011;4943;52.550;13.462;2022-12-07T06:08:14;11.03;;;5.83;;
9807;SDS011;4943;52.550;13.462;2022-12-07T06:10:42;10.77;;;6.60;;
9807;SDS011;4943;52.550;13.462;2022-12-07T06:13:12;9.47;;;5.73;;
9807;SDS011;4943;52.550;13.462;2022-12-07T06:15:39;9.03;;;5.60;;
9807;SDS011;4943;52.550;13.462;2022-12-07T06:18:10;10.60;;;6.53;;
9807;SDS011;4943;52.550;13.462;2022-12-07T06:20:38;10.73;;;5.73;;
9807;SDS011;4943;52.550;13.462;2022-12-07T06:23:07;13.40;;;6.47;;
9807;SDS011;4943;52.550;13.462;2022-12-07T06:25:35;8.57;;;5.40;;
9807;SDS011;4943;52.550;13.462;2022-12-07T06:28:04;11.73;;;5.53;;
9807;SDS011;4943;52.550;13.462;2022-12-07T06:30:32;13.10;;;5.60;;
9807;SDS011;4943;52.550;13.462;2022-12-07T06:33:01;9.13;;;4.73;;
9807;SDS011;4943;52.550;13.462;2022-12-07T06:35:31;7.23;;;5.17;;
9807;SDS011;4943;52.550;13.462;2022-12-07T06:38:00;10.37;;;5.50;;
9807;SDS011;4943;52.550;13.462;2022-12-07T06:40:29;9.87;;;5.43;;
9807;SDS011;4943;52.550;13.462;2022-12-07T06:42:57;10.20;;;5.20;;
9807;SDS011;4943;52.550;13.462;2022-12-07T06:45:26;7.40;;;5.20;;
9807;SDS011;4943;52.550;13.462;2022-12-07T06:47:54;6.87;;;4.47;;
9807;SDS011;4943;52.550;13.462;2022-12-07T06:50:23;9.03;;;5.37;;
9807;SDS011;4943;52.550;13.462;2022-12-07T06:52:53;9.07;;;5.07;;
9807;SDS011;4943;52.550;13.462;2022-12-07T06:55:22;9.47;;;5.27;;
9807;SDS011;4943;52.550;13.462;2022-12-07T06:57:51;9.23;;;5.67;;
9807;SDS011;4943;52.550;13.462;2022-12-07T07:00:19;8.53;;;4.83;;
9807;SDS011;4943;52.550;13.462;2022-12-07T07:02:48;9.30;;;6.07;;
9807;SDS011;4943;52.550;13.462;2022-12-07T07:05:17;10.20;;;7.70;;
9807;SDS011;4943;52.550;13.462;2022-12-07T07:07:47;12.53;;;6.23;;
9807;SDS011;4943;52.550;13.462;2022-12-07T07:10:37;9.87;;;5.87;;
9807;SDS011;4943;52.550;13.462;2022-12-07T07:13:06;12.50;;;7.07;;
9807;SDS011;4943;52.550;13.462;2022-12-07T07:15:37;11.00;;;6.27;;
9807;SDS011;4943;52.550;13.462;2022-12-07T07:18:06;10.40;;;5.70;;
9807;SDS011;4943;52.550;13.462;2022-12-07T07:20:34;14.83;;;6.27;;
9807;SDS011;4943;52.550;13.462;2022-12-07T07:23:05;8.07;;;5.37;;
9807;SDS011;4943;52.550;13.462;2022-12-07T07:25:33;9.13;;;6.23;;
9807;SDS011;4943;52.550;13.462;2022-12-07T07:28:04;13.57;;;5.80;;
9807;SDS011;4943;52.550;13.462;2022-12-07T07:30:32;8.20;;;5.53;;
9807;SDS011;4943;52.550;13.462;2022-12-07T07:33:01;9.50;;;5.27;;
9807;SDS011;4943;52.550;13.462;2022-12-07T07:35:32;8.20;;;5.23;;
9807;SDS011;4943;52.550;13.462;2022-12-07T07:38:01;9.03;;;4.97;;
9807;SDS011;4943;52.550;13.462;2022-12-07T07:40:30;7.63;;;5.00;;
9807;SDS011;4943;52.550;13.462;2022-12-07T07:42:59;9.97;;;5.87;;
9807;SDS011;4943;52.550;13.462;2022-12-07T07:45:29;7.50;;;4.93;;
9807;SDS011;4943;52.550;13.462;2022-12-07T07:47:58;9.47;;;4.60;;
9807;SDS011;4943;52.550;13.462;2022-12-07T07:50:26;7.37;;;4.90;;
9807;SDS011;4943;52.550;13.462;2022-12-07T07:52:56;8.33;;;4.40;;
9807;SDS011;4943;52.550;13.462;2022-12-07T07:55:25;6.23;;;4.20;;
9807;SDS011;4943;52.550;13.462;2022-12-07T07:57:55;9.00;;;4.80;;
9807;SDS011;4943;52.550;13.462;2022-12-07T08:00:24;8.30;;;4.17;;
9807;SDS011;4943;52.550;13.462;2022-12-07T08:02:54;6.87;;;4.30;;
9807;SDS011;4943;52.550;13.462;2022-12-07T08:05:23;5.30;;;3.73;;
9807;SDS011;4943;52.550;13.462;2022-12-07T08:07:52;8.83;;;4.17;;
9807;SDS011;4943;52.550;13.462;2022-12-07T08:10:20;6.37;;;3.30;;
9807;SDS011;4943;52.550;13.462;2022-12-07T08:12:49;6.10;;;3.50;;
9807;SDS011;4943;52.550;13.462;2022-12-07T08:15:35;5.67;;;3.30;;
9807;SDS011;4943;52.550;13.462;2022-12-07T08:18:07;4.97;;;3.40;;
9807;SDS011;4943;52.550;13.462;2022-12-07T08:20:36;5.50;;;3.37;;
9807;SDS011;4943;52.550;13.462;2022-12-07T08:23:06;4.63;;;2.40;;
9807;SDS011;4943;52.550;13.462;2022-12-07T08:25:36;6.47;;;3.70;;
9807;SDS011;4943;52.550;13.462;2022-12-07T08:28:06;3.47;;;2.50;;
9807;SDS011;4943;52.550;13.462;2022-12-07T08:30:34;4.60;;;2.50;;
9807;SDS011;4943;52.550;13.462;2022-12-07T08:33:03;3.73;;;2.60;;
9807;SDS011;4943;52.550;13.462;2022-12-07T08:35:34;3.53;;;2.97;;
9807;SDS011;4943;52.550;13.462;2022-12-07T08:38:02;4.10;;;2.83;;
9807;SDS011;4943;52.550;13.462;2022-12-07T08:40:31;4.90;;;2.27;;
9807;SDS011;4943;52.550;13.462;2022-12-07T08:42:59;5.90;;;2.87;;
9807;SDS011;4943;52.550;13.462;2022-12-07T08:45:28;5.67;;;2.40;;
9807;SDS011;4943;52.550;13.462;2022-12-07T08:48:00;3.77;;;2.30;;
9807;SDS011;4943;52.550;13.462;2022-12-07T08:50:35;3.83;;;2.60;;
9807;SDS011;4943;52.550;13.462;2022-12-07T08:53:12;5.00;;;2.40;;
9807;SDS011;4943;52.550;13.462;2022-12-07T08:55:41;2.63;;;2.07;;
9807;SDS011;4943;52.550;13.462;2022-12-07T08:58:11;2.57;;;1.63;;
9807;SDS011;4943;52.550;13.462;2022-12-07T09:00:40;2.57;;;1.80;;
9807;SDS011;4943;52.550;13.462;2022-12-07T09:03:08;2.93;;;2.07;;
9807;SDS011;4943;52.550;13.462;2022-12-07T09:05:38;3.60;;;1.97;;
9807;SDS011;4943;52.550;13.462;2022-12-07T09:08:07;1.93;;;1.50;;
9807;SDS011;4943;52.550;13.462;2022-12-07T09:10:36;1.30;;;1.20;;
9807;SDS011;4943;52.550;13.462;2022-12-07T09:13:05;2.60;;;1.60;;
9807;SDS011;4943;52.550;13.462;2022-12-07T09:15:34;3.70;;;1.57;;
9807;SDS011;4943;52.550;13.462;2022-12-07T09:18:02;3.33;;;1.50;;
9807;SDS011;4943;52.550;13.462;2022-12-07T09:20:31;2.03;;;1.27;;
9807;SDS011;4943;52.550;13.462;2022-12-07T09:23:01;2.43;;;1.10;;
9807;SDS011;4943;52.550;13.462;2022-12-07T09:25:30;1.97;;;1.37;;
9807;SDS011;4943;52.550;13.462;2022-12-07T09:27:59;2.07;;;1.50;;
9807;SDS011;4943;52.550;13.462;2022-12-07T09:30:27;1.20;;;1.00;;
9807;SDS011;4943;52.550;13.462;2022-12-07T09:32:59;1.60;;;1.10;;
9807;SDS011;4943;52.550;13.462;2022-12-07T09:35:27;0.80;;;0.77;;
9807;SDS011;4943;52.550;13.462;2022-12-07T09:37:56;1.30;;;1.20;;
9807;SDS011;4943;52.550;13.462;2022-12-07T09:40:27;1.53;;;1.40;;
9807;SDS011;4943;52.550;13.462;2022-12-07T09:42:56;1.33;;;1.20;;
9807;SDS011;4943;52.550;13.462;2022-12-07T09:45:25;1.80;;;1.17;;
9807;SDS011;4943;52.550;13.462;2022-12-07T09:47:56;1.17;;;1.10;;
9807;SDS011;4943;52.550;13.462;2022-12-07T09:50:26;1.33;;;1.13;;
9807;SDS011;4943;52.550;13.462;2022-12-07T09:53:01;1.60;;;1.07;;
9807;SDS011;4943;52.550;13.462;2022-12-07T09:55:36;2.20;;;1.60;;
9807;SDS011;4943;52.550;13.462;2022-12-07T09:58:08;1.30;;;0.90;;
9807;SDS011;4943;52.550;13.462;2022-12-07T10:00:45;1.20;;;1.10;;
9807;SDS011;4943;52.550;13.462;2022-12-07T10:03:14;1.37;;;1.27;;
9807;SDS011;4943;52.550;13.462;2022-12-07T10:05:45;1.17;;;1.07;;
9807;SDS011;4943;52.550;13.462;2022-12-07T10:08:16;1.20;;;1.07;;
9807;SDS011;4943;52.550;13.462;2022-12-07T10:10:48;1.30;;;1.03;;
9807;SDS011;4943;52.550;13.462;2022-12-07T10:13:20;1.30;;;1.20;;
9807;SDS011;4943;52.550;13.462;2022-12-07T10:15:51;1.90;;;1.10;;
9807;SDS011;4943;52.550;13.462;2022-12-07T10:18:25;1.27;;;1.17;;
9807;SDS011;4943;52.550;13.462;2022-12-07T10:21:00;1.33;;;1.23;;
9807;SDS011;4943;52.550;13.462;2022-12-07T10:23:31;2.33;;;1.20;;
9807;SDS011;4943;52.550;13.462;2022-12-07T10:26:05;1.40;;;1.20;;
9807;SDS011;4943;52.550;13.462;2022-12-07T10:28:49;1.17;;;1.07;;
9807;SDS011;4943;52.550;13.462;2022-12-07T10:31:18;1.20;;;1.10;;
9807;SDS011;4943;52.550;13.462;2022-12-07T10:33:50;1.40;;;1.03;;
9807;SDS011;4943;52.550;13.462;2022-12-07T10:36:22;1.03;;;1.00;;
9807;SDS011;4943;52.550;13.462;2022-12-07T10:38:52;1.17;;;1.10;;
9807;SDS011;4943;52.550;13.462;2022-12-07T10:41:28;1.57;;;1.00;;
9807;SDS011;4943;52.550;13.462;2022-12-07T10:43:57;1.63;;;1.43;;
9807;SDS011;4943;52.550;13.462;2022-12-07T10:46:34;0.83;;;0.83;;
9807;SDS011;4943;52.550;13.462;2022-12-07T10:49:21;1.37;;;1.00;;
9807;SDS011;4943;52.550;13.462;2022-12-07T10:52:15;1.20;;;1.10;;
9807;SDS011;4943;52.550;13.462;2022-12-07T10:54:51;1.30;;;1.20;;
9807;SDS011;4943;52.550;13.462;2022-12-07T10:57:36;3.17;;;1.50;;
9807;SDS011;4943;52.550;13.462;2022-12-07T11:00:16;1.57;;;1.47;;
9807;SDS011;4943;52.550;13.462;2022-12-07T11:02:56;1.50;;;0.90;;
9807;SDS011;4943;52.550;13.462;2022-12-07T11:05:53;1.27;;;1.10;;
9807;SDS011;4943;52.550;13.462;2022-12-07T11:08:36;1.27;;;1.17;;
9807;SDS011;4943;52.550;13.462;2022-12-07T11:11:16;1.77;;;1.37;;
9807;SDS011;4943;52.550;13.462;2022-12-07T11:13:55;1.50;;;1.40;;
9807;SDS011;4943;52.550;13.462;2022-12-07T11:16:31;2.30;;;1.53;;
9807;SDS011;4943;52.550;13.462;2022-12-07T11:19:14;2.60;;;1.27;;
9807;SDS011;4943;52.550;13.462;2022-12-07T11:21:55;1.73;;;1.60;;
9807;SDS011;4943;52.550;13.462;2022-12-07T11:24:27;2.20;;;1.40;;
9807;SDS011;4943;52.550;13.462;2022-12-07T11:27:04;4.53;;;1.63;;
9807;SDS011;4943;52.550;13.462;2022-12-07T11:29:58;1.53;;;1.27;;
9807;SDS011;4943;52.550;13.462;2022-12-07T11:32:40;1.97;;;1.57;;
9807;SDS011;4943;52.550;13.462;2022-12-07T11:35:19;2.60;;;1.83;;
9807;SDS011;4943;52.550;13.462;2022-12-07T11:37:57;2.73;;;1.63;;
9807;SDS011;4943;52.550;13.462;2022-12-07T11:40:30;3.07;;;1.63;;
9807;SDS011;4943;52.550;13.462;2022-12-07T11:43:04;2.97;;;1.80;;
9807;SDS011;4943;52.550;13.462;2022-12-07T11:45:44;3.77;;;1.40;;
9807;SDS011;4943;52.550;13.462;2022-12-07T11:48:20;3.27;;;2.30;;
9807;SDS011;4943;52.550;13.462;2022-12-07T11:50:52;2.43;;;1.67;;
9807;SDS011;4943;52.550;13.462;2022-12-07T11:53:25;1.43;;;1.33;;
9807;SDS011;4943;52.550;13.462;2022-12-07T11:56:00;2.23;;;2.03;;
9807;SDS011;4943;52.550;13.462;2022-12-07T11:58:35;3.40;;;2.00;;
9807;SDS011;4943;52.550;13.462;2022-12-07T12:01:24;3.80;;;1.93;;
9807;SDS011;4943;52.550;13.462;2022-12-07T12:04:02;2.73;;;1.93;;
9807;SDS011;4943;52.550;13.462;2022-12-07T12:06:44;2.40;;;1.90;;
9807;SDS011;4943;52.550;13.462;2022-12-07T12:09:14;7.27;;;2.23;;
9807;SDS011;4943;52.550;13.462;2022-12-07T12:12:08;4.97;;;2.90;;
9807;SDS011;4943;52.550;13.462;2022-12-07T12:15:27;3.53;;;2.43;;
9807;SDS011;4943;52.550;13.462;2022-12-07T12:18:17;2.70;;;1.70;;
9807;SDS011;4943;52.550;13.462;2022-12-07T12:21:00;2.17;;;1.50;;
9807;SDS011;4943;52.550;13.462;2022-12-07T12:23:35;4.13;;;1.90;;
9807;SDS011;4943;52.550;13.462;2022-12-07T12:26:13;3.77;;;2.13;;
9807;SDS011;4943;52.550;13.462;2022-12-07T12:28:50;3.03;;;1.97;;
9807;SDS011;4943;52.550;13.462;2022-12-07T12:31:31;4.73;;;1.60;;
9807;SDS011;4943;52.550;13.462;2022-12-07T12:34:10;3.43;;;1.27;;
9807;SDS011;4943;52.550;13.462;2022-12-07T12:37:00;1.67;;;1.57;;
9807;SDS011;4943;52.550;13.462;2022-12-07T12:39:29;1.60;;;1.50;;
9807;SDS011;4943;52.550;13.462;2022-12-07T12:41:59;1.83;;;1.60;;
9807;SDS011;4943;52.550;13.462;2022-12-07T12:44:40;3.90;;;2.20;;
9807;SDS011;4943;52.550;13.462;2022-12-07T12:47:42;2.37;;;1.83;;
9807;SDS011;4943;52.550;13.462;2022-12-07T12:50:22;2.63;;;1.63;;
9807;SDS011;4943;52.550;13.462;2022-12-07T12:52:54;2.90;;;1.70;;
9807;SDS011;4943;52.550;13.462;2022-12-07T12:55:30;4.43;;;1.60;;
9807;SDS011;4943;52.550;13.462;2022-12-07T12:58:29;4.50;;;2.00;;
9807;SDS011;4943;52.550;13.462;2022-12-07T13:04:27;2.60;;;1.43;;
9807;SDS011;4943;52.550;13.462;2022-12-07T13:07:13;3.10;;;1.33;;
9807;SDS011;4943;52.550;13.462;2022-12-07T13:10:21;2.73;;;1.33;;
9807;SDS011;4943;52.550;13.462;2022-12-07T13:13:02;1.60;;;1.00;;
9807;SDS011;4943;52.550;13.462;2022-12-07T13:15:34;2.67;;;1.63;;
9807;SDS011;4943;52.550;13.462;2022-12-07T13:20:55;2.93;;;1.57;;
9807;SDS011;4943;52.550;13.462;2022-12-07T13:23:32;5.00;;;1.67;;
9807;SDS011;4943;52.550;13.462;2022-12-07T13:26:09;1.80;;;1.63;;
9807;SDS011;4943;52.550;13.462;2022-12-07T13:28:46;2.27;;;1.70;;
9807;SDS011;4943;52.550;13.462;2022-12-07T13:31:19;2.50;;;1.63;;
9807;SDS011;4943;52.550;13.462;2022-12-07T13:33:58;2.50;;;1.20;;
9807;SDS011;4943;52.550;13.462;2022-12-07T13:36:29;2.90;;;1.53;;
9807;SDS011;4943;52.550;13.462;2022-12-07T13:39:19;5.00;;;1.60;;
9807;SDS011;4943;52.550;13.462;2022-12-07T13:41:50;3.13;;;1.53;;
9807;SDS011;4943;52.550;13.462;2022-12-07T13:44:21;4.57;;;1.80;;
9807;SDS011;4943;52.550;13.462;2022-12-07T13:46:52;2.43;;;1.17;;
9807;SDS011;4943;52.550;13.462;2022-12-07T13:49:28;3.40;;;1.90;;
9807;SDS011;4943;52.550;13.462;2022-12-07T13:52:08;8.00;;;5.10;;
9807;SDS011;4943;52.550;13.462;2022-12-07T13:54:45;1.90;;;1.30;;
9807;SDS011;4943;52.550;13.462;2022-12-07T13:57:15;0.90;;;0.90;;
9807;SDS011;4943;52.550;13.462;2022-12-07T13:59:44;3.47;;;1.00;;
9807;SDS011;4943;52.550;13.462;2022-12-07T14:02:18;1.83;;;1.20;;
9807;SDS011;4943;52.550;13.462;2022-12-07T14:04:49;1.93;;;1.07;;
9807;SDS011;4943;52.550;13.462;2022-12-07T14:07:19;1.60;;;1.47;;
9807;SDS011;4943;52.550;13.462;2022-12-07T14:09:57;2.57;;;1.60;;
9807;SDS011;4943;52.550;13.462;2022-12-07T14:12:28;3.57;;;1.70;;
9807;SDS011;4943;52.550;13.462;2022-12-07T14:14:59;2.57;;;1.57;;
9807;SDS011;4943;52.550;13.462;2022-12-07T14:17:29;3.17;;;1.67;;
9807;SDS011;4943;52.550;13.462;2022-12-07T14:19:59;1.20;;;0.80;;
9807;SDS011;4943;52.550;13.462;2022-12-07T14:22:29;2.57;;;1.10;;
9807;SDS011;4943;52.550;13.462;2022-12-07T14:25:09;3.93;;;1.20;;
9807;SDS011;4943;52.550;13.462;2022-12-07T14:27:52;4.07;;;1.67;;
9807;SDS011;4943;52.550;13.462;2022-12-07T14:30:25;1.13;;;1.00;;
9807;SDS011;4943;52.550;13.462;2022-12-07T14:32:56;2.27;;;1.27;;
9807;SDS011;4943;52.550;13.462;2022-12-07T14:35:27;2.73;;;1.63;;
9807;SDS011;4943;52.550;13.462;2022-12-07T14:37:57;1.90;;;1.23;;
9807;SDS011;4943;52.550;13.462;2022-12-07T14:40:28;2.67;;;1.77;;
9807;SDS011;4943;52.550;13.462;2022-12-07T14:43:00;1.43;;;1.23;;
9807;SDS011;4943;52.550;13.462;2022-12-07T14:45:31;1.40;;;1.10;;
9807;SDS011;4943;52.550;13.462;2022-12-07T14:48:00;1.97;;;1.40;;
9807;SDS011;4943;52.550;13.462;2022-12-07T14:50:49;3.20;;;1.40;;
9807;SDS011;4943;52.550;13.462;2022-12-07T14:53:41;2.97;;;1.57;;
9807;SDS011;4943;52.550;13.462;2022-12-07T14:56:24;4.20;;;1.40;;
9807;SDS011;4943;52.550;13.462;2022-12-07T14:58:54;4.83;;;1.60;;
9807;SDS011;4943;52.550;13.462;2022-12-07T15:01:22;2.93;;;1.80;;
9807;SDS011;4943;52.550;13.462;2022-12-07T15:03:51;7.23;;;1.40;;
9807;SDS011;4943;52.550;13.462;2022-12-07T15:06:20;6.50;;;2.10;;
9807;SDS011;4943;52.550;13.462;2022-12-07T15:08:49;3.43;;;1.57;;
9807;SDS011;4943;52.550;13.462;2022-12-07T15:11:18;2.30;;;1.50;;
9807;SDS011;4943;52.550;13.462;2022-12-07T15:13:48;2.23;;;1.63;;
9807;SDS011;4943;52.550;13.462;2022-12-07T15:16:37;1.80;;;1.40;;
9807;SDS011;4943;52.550;13.462;2022-12-07T15:19:27;1.90;;;1.27;;
9807;SDS011;4943;52.550;13.462;2022-12-07T15:21:56;2.77;;;1.50;;
9807;SDS011;4943;52.550;13.462;2022-12-07T15:24:26;3.37;;;1.40;;
9807;SDS011;4943;52.550;13.462;2022-12-07T15:26:55;1.47;;;1.03;;
9807;SDS011;4943;52.550;13.462;2022-12-07T15:29:25;4.17;;;1.77;;
9807;SDS011;4943;52.550;13.462;2022-12-07T15:31:54;2.63;;;1.13;;
9807;SDS011;4943;52.550;13.462;2022-12-07T15:34:24;2.73;;;0.83;;
9807;SDS011;4943;52.550;13.462;2022-12-07T15:37:03;2.70;;;1.10;;
9807;SDS011;4943;52.550;13.462;2022-12-07T15:39:32;1.23;;;1.07;;
9807;SDS011;4943;52.550;13.462;2022-12-07T15:42:02;4.63;;;1.77;;